Terminal Aerodrome Forecast
Issued by NWS Tulsa, OK

Home | Current Version | Previous Version | Text Only | Print | Product List | Glossary On
Versions: 1 2 3 4 5 6 7 8 9 10 11 12 13
463
FTUS44 KTSA 141733
TAFFSM
TAF
KFSM 141733Z 1418/1518 04008KT P6SM OVC025
      TEMPO 1418/1421 4SM -DZ BKN015
     FM150300 08003KT P6SM OVC050
     FM150900 VRB03KT P6SM BKN250=

USA.gov is the U.S. government's official web portal to all federal, state and local government web resources and services.